Time;durP1;ratioP1;P1;durP2;ratioP2;P2;SDS_P1;SDS_P2;PMS_P1;PMS_P2;Temp;Humidity;BMP_temperature;BMP_pressure;BME280_temperature;BME280_humidity;BME280_pressure;Samples;Min_cycle;Max_cycle;Signal;HPM_P1;HPM_P2
2021/05/30 00:01:40;;;;;;;;;;;;;;;21.29;52.17;100697.47;5076792;28;1085;-55
2021/05/30 00:04:08;;;;;;;;;;;;;;;21.43;50.75;100698.25;5076428;28;950;-47
2021/05/30 00:06:34;;;;;;;;;;;;;;;21.23;50.47;100699.50;5077116;28;1978;-56
2021/05/30 00:08:59;;;;;;;;;;;;;;;21.32;49.82;100703.22;5077341;28;752;-48
2021/05/30 00:11:25;;;;;;;;;;;;;;;21.31;51.68;100698.00;5077030;28;795;-46
2021/05/30 00:13:52;;;;;;;;;;;;;;;21.72;52.54;100688.84;5076747;28;1218;-58
2021/05/30 00:16:17;;;;;;;;;;;;;;;21.69;52.03;100690.28;5076698;28;1016;-46
2021/05/30 00:18:43;;;;;;;;;;;;;;;21.65;51.61;100688.44;5076263;28;1021;-58
2021/05/30 00:21:08;;;;;;;;;;;;;;;21.61;51.54;100679.13;5076778;28;836;-48
2021/05/30 00:23:34;;;;;;;;;;;;;;;21.66;52.67;100684.56;5076693;28;537;-48
2021/05/30 00:26:00;;;;;;;;;;;;;;;21.79;53.72;100680.91;5076340;28;1913;-56
2021/05/30 00:28:25;;;;;;;;;;;;;;;22.08;53.31;100679.72;5076665;28;760;-48
2021/05/30 00:30:50;;;;;;;;;;;;;;;21.80;53.84;100670.69;5076523;28;752;-51
2021/05/30 00:33:16;;;;;;;;;;;;;;;21.59;53.16;100675.84;5076037;28;1018;-59
2021/05/30 00:35:41;;;;;;;;;;;;;;;21.58;51.77;100677.00;5076473;28;819;-50
2021/05/30 00:38:07;;;;;;;;;;;;;;;21.44;51.03;100677.78;5076371;28;788;-59
2021/05/30 00:40:33;;;;;;;;;;;;;;;21.47;51.21;100668.84;5076979;28;780;-45
2021/05/30 00:42:58;;;;;;;;;;;;;;;21.23;52.14;100671.06;5076281;28;790;-49
2021/05/30 00:45:23;;;;;;;;;;;;;;;21.64;52.26;100675.72;5076507;28;1977;-46
2021/05/30 00:47:49;;;;;;;;;;;;;;;21.90;52.71;100659.38;5076048;28;959;-46
2021/05/30 00:50:14;;;;;;;;;;;;;;;21.98;53.04;100658.63;5076077;28;868;-46
2021/05/30 00:52:40;;;;;;;;;;;;;;;22.01;52.70;100669.06;5076415;28;851;-47
2021/05/30 00:55:06;;;;;;;;;;;;;;;21.53;52.66;100664.91;5076526;28;795;-47
2021/05/30 00:57:31;;;;;;;;;;;;;;;21.62;51.47;100655.88;5076208;28;847;-53
2021/05/30 00:59:57;;;;;;;;;;;;;;;21.54;51.13;100654.63;5076921;28;767;-53
2021/05/30 01:02:22;;;;;;;;;;;;;;;21.42;51.78;100657.91;5075677;28;1001;-57
2021/05/30 01:04:48;;;;;;;;;;;;;;;21.58;52.04;100658.44;5076130;28;836;-48
2021/05/30 01:07:16;;;;;;;;;;;;;;;21.74;52.33;100658.91;5076596;28;1984;-46
2021/05/30 01:09:42;;;;;;;;;;;;;;;21.80;52.38;100667.94;5076284;28;740;-52
2021/05/30 01:12:07;;;;;;;;;;;;;;;21.91;52.59;100662.94;5075583;28;1202;-46
2021/05/30 01:14:34;;;;;;;;;;;;;;;21.83;53.09;100656.22;5058503;28;807;-46
2021/05/30 01:16:59;;;;;;;;;;;;;;;21.91;53.02;100657.41;5075433;28;1031;-47
2021/05/30 01:19:26;;;;;;;;;;;;;;;21.97;52.91;100656.97;5057671;28;916;-47
2021/05/30 01:21:51;;;;;;;;;;;;;;;22.03;53.15;100660.44;5058767;28;736;-47
2021/05/30 01:24:17;;;;;;;;;;;;;;;21.96;53.31;100660.06;5058857;28;730;-46
2021/05/30 01:26:42;;;;;;;;;;;;;;;22.01;53.34;100662.72;5076036;28;1906;-46
2021/05/30 01:29:08;;;;;;;;;;;;;;;21.99;53.54;100662.19;5076143;28;897;-49
2021/05/30 01:31:33;;;;;;;;;;;;;;;21.96;53.90;100666.41;5076120;28;783;-46
2021/05/30 01:33:59;;;;;;;;;;;;;;;22.04;53.68;100662.09;5074885;28;974;-47
2021/05/30 01:36:24;;;;;;;;;;;;;;;22.15;53.41;100669.03;5075892;28;867;-46
2021/05/30 01:38:50;;;;;;;;;;;;;;;22.10;53.65;100662.78;5076345;28;775;-58
2021/05/30 01:41:15;;;;;;;;;;;;;;;22.03;54.07;100665.97;5075522;28;783;-47
2021/05/30 01:43:40;;;;;;;;;;;;;;;22.21;53.53;100664.97;5075959;28;772;-49
2021/05/30 01:46:06;;;;;;;;;;;;;;;22.11;53.82;100662.47;5075798;28;1898;-48
2021/05/30 01:48:31;;;;;;;;;;;;;;;22.10;54.16;100665.56;5075153;28;1029;-47
2021/05/30 01:50:57;;;;;;;;;;;;;;;21.87;54.49;100658.03;5061561;28;901;-49
2021/05/30 01:54:10;;;;;;;;;;;;;;;21.18;56.60;100663.66;5079795;28;768;-57
2021/05/30 01:58:34;;;;;;;;;;;;;;;21.38;56.24;100662.44;5079860;28;775;-46
2021/05/30 02:00:59;;;;;;;;;;;;;;;21.84;55.45;100658.69;5061845;28;791;-58
2021/05/30 02:03:25;;;;;;;;;;;;;;;22.27;54.61;100660.13;5046989;28;975;-55
2021/05/30 02:05:53;;;;;;;;;;;;;;;22.34;54.34;100665.25;5041624;28;1972;-58
2021/05/30 02:08:19;;;;;;;;;;;;;;;22.16;55.03;100665.13;5041470;28;753;-59
2021/05/30 02:10:44;;;;;;;;;;;;;;;22.04;55.48;100667.63;5059066;28;752;-45
2021/05/30 02:13:10;;;;;;;;;;;;;;;21.73;53.54;100665.56;5073069;28;1139;-47
2021/05/30 02:15:35;;;;;;;;;;;;;;;21.61;53.73;100665.28;5078913;28;1206;-47
2021/05/30 02:18:01;;;;;;;;;;;;;;;21.97;55.84;100662.53;5050027;28;975;-48
2021/05/30 02:20:33;;;;;;;;;;;;;;;22.18;55.53;100662.84;5059515;28;796;-46
2021/05/30 02:22:58;;;;;;;;;;;;;;;22.32;54.92;100667.50;5041030;28;809;-47
2021/05/30 02:25:24;;;;;;;;;;;;;;;22.18;55.00;100659.28;5058784;28;1906;-45
2021/05/30 02:27:50;;;;;;;;;;;;;;;22.12;55.38;100657.75;5059642;28;772;-59
2021/05/30 02:30:15;;;;;;;;;;;;;;;21.97;54.54;100661.72;5040827;28;764;-47
2021/05/30 02:32:41;;;;;;;;;;;;;;;21.77;51.12;100671.28;5067495;28;1023;-47
2021/05/30 02:35:07;;;;;;;;;;;;;;;21.91;54.08;100663.78;5078885;28;903;-59
2021/05/30 02:37:32;;;;;;;;;;;;;;;22.02;55.91;100669.88;5078699;28;728;-47
2021/05/30 02:39:58;;;;;;;;;;;;;;;22.23;55.23;100667.44;5078582;28;862;-46
2021/05/30 02:42:23;;;;;;;;;;;;;;;22.46;54.57;100667.47;5078769;28;824;-48
2021/05/30 02:44:49;;;;;;;;;;;;;;;22.12;55.46;100669.66;5078589;28;835;-47
2021/05/30 02:47:14;;;;;;;;;;;;;;;22.02;55.28;100669.88;5077796;28;1966;-50
2021/05/30 02:49:40;;;;;;;;;;;;;;;21.60;53.69;100666.41;5059891;28;822;-47
2021/05/30 02:52:05;;;;;;;;;;;;;;;21.40;56.05;100665.69;5078501;28;840;-54
2021/05/30 02:54:32;;;;;;;;;;;;;;;21.58;55.54;100668.69;5078346;28;950;-58
2021/05/30 02:56:57;;;;;;;;;;;;;;;21.81;54.55;100670.38;5078600;28;808;-48
2021/05/30 02:59:23;;;;;;;;;;;;;;;21.83;53.87;100664.53;5078281;28;760;-48
2021/05/30 03:01:48;;;;;;;;;;;;;;;21.92;53.52;100665.41;5059585;28;1210;-46
2021/05/30 03:04:14;;;;;;;;;;;;;;;21.84;53.47;100669.75;5078289;28;779;-49
2021/05/30 03:06:39;;;;;;;;;;;;;;;21.73;53.53;100662.81;5078115;28;1969;-58
2021/05/30 03:09:05;;;;;;;;;;;;;;;21.74;53.54;100664.44;5078049;28;752;-46
2021/05/30 03:11:30;;;;;;;;;;;;;;;21.82;53.22;100672.00;5078528;28;860;-52
2021/05/30 03:13:57;;;;;;;;;;;;;;;21.84;53.14;100675.28;5077758;28;1254;-57
2021/05/30 03:16:23;;;;;;;;;;;;;;;21.95;53.06;100670.34;5077342;28;1160;-44
2021/05/30 03:18:48;;;;;;;;;;;;;;;21.82;53.35;100672.00;5077525;28;1010;-45
2021/05/30 03:21:14;;;;;;;;;;;;;;;21.70;53.64;100669.78;5077951;28;847;-45
2021/05/30 03:23:39;;;;;;;;;;;;;;;21.82;53.40;100677.53;5077698;28;724;-64
2021/05/30 03:26:05;;;;;;;;;;;;;;;21.68;53.82;100674.78;5077871;28;1964;-46
2021/05/30 03:28:30;;;;;;;;;;;;;;;21.79;53.46;100680.13;5077725;28;737;-56
2021/05/30 03:30:56;;;;;;;;;;;;;;;21.86;53.39;100661.94;5077677;28;798;-62
2021/05/30 03:33:21;;;;;;;;;;;;;;;21.82;53.43;100680.28;5077030;28;1029;-49
2021/05/30 03:35:47;;;;;;;;;;;;;;;21.78;53.70;100670.97;5077690;28;804;-47
2021/05/30 03:38:14;;;;;;;;;;;;;;;21.90;53.08;100673.22;5077690;28;791;-47
2021/05/30 03:40:58;;;;;;;;;;;;;;;21.83;53.31;100673.63;5077626;28;875;-45
2021/05/30 03:43:24;;;;;;;;;;;;;;;21.96;52.93;100671.13;5077456;28;787;-62
2021/05/30 03:45:49;;;;;;;;;;;;;;;22.08;52.26;100668.66;5077182;28;1906;-45
2021/05/30 03:48:15;;;;;;;;;;;;;;;21.90;52.62;100675.97;5076901;28;1010;-49
2021/05/30 03:50:40;;;;;;;;;;;;;;;21.90;52.72;100675.97;5077505;28;808;-55
2021/05/30 03:53:06;;;;;;;;;;;;;;;21.82;52.68;100666.47;5076238;28;1095;-56
2021/05/30 03:55:31;;;;;;;;;;;;;;;21.78;52.82;100670.16;5076907;28;747;-58
2021/05/30 03:57:56;;;;;;;;;;;;;;;21.74;52.95;100664.44;5077389;28;760;-46
2021/05/30 04:00:22;;;;;;;;;;;;;;;21.83;52.65;100665.34;5059359;28;1474;-55
2021/05/30 04:02:47;;;;;;;;;;;;;;;21.94;52.20;100663.16;5075086;28;924;-56
2021/05/30 04:05:13;;;;;;;;;;;;;;;21.96;52.38;100660.06;5077199;28;1976;-47
2021/05/30 04:07:39;;;;;;;;;;;;;;;21.92;52.22;100664.59;5077165;28;783;-47
2021/05/30 04:10:10;;;;;;;;;;;;;;;21.74;52.81;100664.44;5058549;28;1234;-58
2021/05/30 04:12:41;;;;;;;;;;;;;;;21.68;52.72;100660.94;5076475;28;1164;-58
2021/05/30 04:15:08;;;;;;;;;;;;;;;21.84;52.22;100663.41;5076837;28;1024;-46
2021/05/30 04:17:33;;;;;;;;;;;;;;;21.75;52.64;100663.31;5075974;28;986;-45
2021/05/30 04:19:59;;;;;;;;;;;;;;;21.91;52.21;100662.94;5076929;28;768;-59
2021/05/30 04:22:24;;;;;;;;;;;;;;;21.83;52.13;100657.03;5058613;28;1009;-47
2021/05/30 04:24:49;;;;;;;;;;;;;;;21.73;52.50;100671.13;5076446;28;801;-46
2021/05/30 04:27:15;;;;;;;;;;;;;;;21.77;52.51;100677.66;5076816;28;1914;-48
2021/05/30 04:29:40;;;;;;;;;;;;;;;21.91;51.84;100674.03;5059004;28;1254;-58
2021/05/30 04:32:06;;;;;;;;;;;;;;;21.92;51.83;100670.94;5076017;28;1018;-58
2021/05/30 04:34:31;;;;;;;;;;;;;;;21.79;52.27;100671.81;5076772;28;787;-51
2021/05/30 04:36:57;;;;;;;;;;;;;;;21.74;52.39;100681.06;5059179;28;1291;-59
2021/05/30 04:39:22;;;;;;;;;;;;;;;21.72;52.75;100683.31;5075462;28;969;-47
2021/05/30 04:41:48;;;;;;;;;;;;;;;21.75;52.59;100682.69;5076533;28;732;-57
2021/05/30 04:44:13;;;;;;;;;;;;;;;21.66;52.66;100679.03;5076378;28;780;-46
2021/05/30 04:46:38;;;;;;;;;;;;;;;21.76;52.45;100681.56;5076235;28;1906;-58
2021/05/30 04:49:04;;;;;;;;;;;;;;;21.75;52.32;100681.88;5076368;28;950;-46
2021/05/30 04:51:29;;;;;;;;;;;;;;;21.78;52.44;100682.03;5076372;28;820;-59
2021/05/30 04:53:55;;;;;;;;;;;;;;;21.83;52.10;100679.16;5076110;28;795;-48
2021/05/30 04:56:21;;;;;;;;;;;;;;;21.68;52.82;100685.88;5076465;28;835;-58
2021/05/30 04:58:47;;;;;;;;;;;;;;;21.71;52.62;100687.19;5077043;28;755;-46
2021/05/30 05:01:13;;;;;;;;;;;;;;;21.97;51.94;100687.44;5076157;28;812;-50
2021/05/30 05:03:38;;;;;;;;;;;;;;;21.81;52.44;100692.53;5075708;28;1018;-44
2021/05/30 05:06:03;;;;;;;;;;;;;;;21.77;52.92;100687.91;5076691;28;1964;-56
2021/05/30 05:08:29;;;;;;;;;;;;;;;21.94;52.28;100684.50;5076173;28;784;-59
2021/05/30 05:10:54;;;;;;;;;;;;;;;21.77;52.86;100685.97;5058152;28;836;-45
2021/05/30 05:13:20;;;;;;;;;;;;;;;22.02;52.38;100672.66;5055170;28;1202;-45
2021/05/30 05:15:49;;;;;;;;;;;;;;;21.86;52.73;100678.53;5055855;28;1202;-46
2021/05/30 05:18:18;;;;;;;;;;;;;;;21.88;52.71;100687.38;5069406;28;958;-47
2021/05/30 05:20:44;;;;;;;;;;;;;;;21.97;52.59;100687.44;5076631;28;756;-47
2021/05/30 05:23:16;;;;;;;;;;;;;;;21.90;52.62;100689.00;5075859;28;756;-60
2021/05/30 05:25:41;;;;;;;;;;;;;;;21.85;52.79;100698.22;5079658;28;1984;-53
2021/05/30 05:28:07;;;;;;;;;;;;;;;21.80;52.75;100698.38;5080608;28;729;-58
2021/05/30 05:30:32;;;;;;;;;;;;;;;21.77;52.83;100702.56;5080395;28;783;-48
2021/05/30 05:32:59;;;;;;;;;;;;;;;21.82;52.80;100696.91;5079636;28;962;-47
2021/05/30 05:35:24;;;;;;;;;;;;;;;21.75;52.92;100704.00;5080451;28;799;-60
2021/05/30 05:37:56;;;;;;;;;;;;;;;21.90;52.56;100705.63;5079734;28;863;-58
2021/05/30 05:40:22;;;;;;;;;;;;;;;21.79;52.73;100699.50;5080214;28;734;-50
2021/05/30 05:42:48;;;;;;;;;;;;;;;21.86;52.79;100689.63;5079997;28;767;-46
2021/05/30 05:45:13;;;;;;;;;;;;;;;22.09;51.87;100692.44;5079401;28;824;-46
2021/05/30 05:47:42;;;;;;;;;;;;;;;21.92;52.43;100695.03;5079532;28;1910;-46
2021/05/30 05:50:08;;;;;;;;;;;;;;;21.96;52.33;100701.59;5080140;28;816;-46
2021/05/30 05:52:33;;;;;;;;;;;;;;;21.81;52.97;100709.13;5079461;28;871;-56
2021/05/30 05:54:59;;;;;;;;;;;;;;;21.94;52.50;100712.19;5079810;28;886;-50
2021/05/30 05:57:24;;;;;;;;;;;;;;;22.00;52.33;100713.69;5079870;28;784;-57
2021/05/30 05:59:49;;;;;;;;;;;;;;;22.09;52.04;100705.44;5079457;28;846;-45
2021/05/30 06:02:17;;;;;;;;;;;;;;;22.02;52.49;100705.88;5079268;28;959;-47
2021/05/30 06:04:42;;;;;;;;;;;;;;;21.84;52.75;100705.72;5079465;28;836;-49
2021/05/30 06:07:08;;;;;;;;;;;;;;;21.94;52.59;100701.91;5079076;28;1913;-48
2021/05/30 06:09:33;;;;;;;;;;;;;;;21.90;52.79;100713.94;5080027;28;792;-57
2021/05/30 06:11:59;;;;;;;;;;;;;;;21.95;52.53;100709.09;5079204;28;1202;-48
2021/05/30 06:14:24;;;;;;;;;;;;;;;21.99;52.33;100712.03;5079218;28;770;-46
2021/05/30 06:16:50;;;;;;;;;;;;;;;21.78;53.16;100720.00;5078826;28;1189;-47
2021/05/30 06:19:17;;;;;;;;;;;;;;;22.10;52.04;100712.63;5079062;28;803;-47
2021/05/30 06:21:43;;;;;;;;;;;;;;;21.97;52.54;100723.44;5078949;28;775;-47
2021/05/30 06:24:08;;;;;;;;;;;;;;;21.99;52.63;100723.13;5079534;28;780;-59
2021/05/30 06:26:34;;;;;;;;;;;;;;;21.96;52.72;100727.31;5078942;28;1909;-45
2021/05/30 06:28:59;;;;;;;;;;;;;;;22.08;52.43;100723.19;5060643;28;891;-53
2021/05/30 06:31:24;;;;;;;;;;;;;;;22.05;52.70;100725.47;5078892;28;851;-47
2021/05/30 06:33:50;;;;;;;;;;;;;;;22.15;52.38;100729.13;5078643;28;971;-57
2021/05/30 06:36:16;;;;;;;;;;;;;;;22.02;52.96;100730.78;5078299;28;835;-45
2021/05/30 06:38:42;;;;;;;;;;;;;;;21.96;53.35;100726.50;5079079;28;815;-55
2021/05/30 06:41:07;;;;;;;;;;;;;;;21.46;54.49;100728.09;5079045;28;748;-56
2021/05/30 06:43:32;;;;;;;;;;;;;;;21.14;55.63;100729.81;5078668;28;832;-45
2021/05/30 06:45:58;;;;;;;;;;;;;;;20.90;54.72;100734.69;5079164;28;1913;-47
2021/05/30 06:48:24;;;;;;;;;;;;;;;21.32;55.02;100735.56;5078787;28;963;-45
2021/05/30 06:51:12;;;;;;;;;;;;;;;21.51;54.48;100733.50;5060785;28;1269;-60
2021/05/30 06:53:35;;;;;;;;;;;;;;;21.99;53.83;100736.97;5078309;28;1482;-45
2021/05/30 06:56:00;;;;;;;;;;;;;;;22.27;53.50;100734.09;5079030;28;812;-55
2021/05/30 06:58:26;;;;;;;;;;;;;;;22.44;53.54;100736.22;5078533;28;789;-61
2021/05/30 07:00:51;;;;;;;;;;;;;;;21.84;55.31;100741.72;5078609;28;773;-45
2021/05/30 07:03:16;;;;;;;;;;;;;;;21.92;55.07;100736.56;5078360;28;955;-61
2021/05/30 07:05:42;;;;;;;;;;;;;;;21.64;53.39;100736.59;5078333;28;1949;-50
2021/05/30 07:08:07;;;;;;;;;;;;;;;21.65;53.74;100730.75;5078351;28;820;-45
2021/05/30 07:10:33;;;;;;;;;;;;;;;21.84;56.07;100730.66;5078770;28;1027;-50
2021/05/30 07:12:58;;;;;;;;;;;;;;;22.25;54.45;100737.19;5078174;28;1206;-45
2021/05/30 07:15:24;;;;;;;;;;;;;;;22.49;53.57;100739.69;5078392;28;1170;-57
2021/05/30 07:17:49;;;;;;;;;;;;;;;22.59;53.57;100735.03;5076515;28;1022;-51
2021/05/30 07:20:15;;;;;;;;;;;;;;;22.59;53.18;100740.56;5077994;28;728;-46
2021/05/30 07:22:40;;;;;;;;;;;;;;;22.09;54.47;100741.44;5077792;28;772;-51
2021/05/30 07:25:06;;;;;;;;;;;;;;;21.94;54.34;100745.41;5078090;28;913;-53
2021/05/30 07:27:31;;;;;;;;;;;;;;;21.46;52.82;100743.84;5077770;28;1910;-58
2021/05/30 07:29:57;;;;;;;;;;;;;;;21.62;55.42;100749.94;5060107;28;1078;-54
2021/05/30 07:32:23;;;;;;;;;;;;;;;21.99;54.87;100759.09;5053408;28;1233;-52
2021/05/30 07:34:49;;;;;;;;;;;;;;;22.28;54.04;100760.69;5057751;28;844;-47
2021/05/30 07:37:14;;;;;;;;;;;;;;;22.41;53.62;100764.56;5057792;28;745;-56
2021/05/30 07:39:39;;;;;;;;;;;;;;;22.58;52.79;100752.78;5057914;28;791;-47
2021/05/30 07:42:05;;;;;;;;;;;;;;;22.52;52.99;100746.56;5058010;28;760;-57
2021/05/30 07:44:31;;;;;;;;;;;;;;;22.01;54.40;100759.63;5039558;28;1515;-59
2021/05/30 07:46:57;;;;;;;;;;;;;;;21.75;54.86;100762.13;5059350;28;1910;-58
2021/05/30 07:49:23;;;;;;;;;;;;;;;21.46;54.17;100764.06;5077556;28;862;-47
2021/05/30 07:51:48;;;;;;;;;;;;;;;21.64;54.93;100764.28;5077117;28;823;-57
2021/05/30 07:54:14;;;;;;;;;;;;;;;21.86;54.83;100758.00;5077462;28;860;-46
2021/05/30 07:56:40;;;;;;;;;;;;;;;22.20;53.57;100765.84;5077327;28;845;-56
2021/05/30 07:59:08;;;;;;;;;;;;;;;22.46;53.01;100756.13;5077444;28;788;-49
2021/05/30 08:01:34;;;;;;;;;;;;;;;22.51;52.69;100756.81;5077207;28;859;-46
2021/05/30 08:03:59;;;;;;;;;;;;;;;22.54;52.49;100752.63;5077079;28;962;-51
2021/05/30 08:06:24;;;;;;;;;;;;;;;21.97;54.19;100756.66;5076911;28;1972;-45
2021/05/30 08:08:50;;;;;;;;;;;;;;;21.72;54.76;100766.31;5059372;28;775;-46
2021/05/30 08:11:15;;;;;;;;;;;;;;;21.41;52.54;100755.84;5077043;28;783;-45
2021/05/30 08:13:41;;;;;;;;;;;;;;;21.59;55.19;100756.91;5077026;28;1159;-54
2021/05/30 08:16:06;;;;;;;;;;;;;;;21.86;54.56;100758.81;5076848;28;1103;-53
2021/05/30 08:18:31;;;;;;;;;;;;;;;21.98;53.49;100754.69;5076944;28;962;-56
2021/05/30 08:20:57;;;;;;;;;;;;;;;22.01;52.36;100765.16;5077204;28;779;-44
2021/05/30 08:23:22;;;;;;;;;;;;;;;21.84;51.74;100763.84;5076847;28;759;-48
2021/05/30 08:25:48;;;;;;;;;;;;;;;21.60;51.27;100768.78;5076925;28;1969;-55
2021/05/30 08:28:13;;;;;;;;;;;;;;;21.63;50.78;100768.16;5076535;28;791;-49
2021/05/30 08:30:39;;;;;;;;;;;;;;;21.70;52.22;100779.66;5076780;28;783;-49
2021/05/30 08:33:04;;;;;;;;;;;;;;;21.95;53.33;100775.53;5048117;28;1222;-45
2021/05/30 08:35:30;;;;;;;;;;;;;;;22.26;53.50;100776.78;5056452;28;752;-46
2021/05/30 08:37:55;;;;;;;;;;;;;;;22.23;53.79;100781.00;5056541;28;863;-54
2021/05/30 08:40:21;;;;;;;;;;;;;;;21.49;55.07;100771.75;5056983;28;884;-54
2021/05/30 08:42:46;;;;;;;;;;;;;;;21.06;55.38;100777.53;5038407;28;832;-56
2021/05/30 08:45:12;;;;;;;;;;;;;;;20.73;55.78;100769.25;5056758;28;868;-44
2021/05/30 08:47:37;;;;;;;;;;;;;;;21.09;53.44;100760.31;5064532;28;1913;-44
2021/05/30 08:50:03;;;;;;;;;;;;;;;21.19;52.51;100765.66;5076231;28;860;-44
2021/05/30 08:52:29;;;;;;;;;;;;;;;21.30;51.56;100765.47;5076439;28;795;-50
2021/05/30 08:54:55;;;;;;;;;;;;;;;21.29;51.57;100758.31;5058206;28;812;-44
2021/05/30 08:57:21;;;;;;;;;;;;;;;21.24;51.47;100762.00;5076101;28;884;-54
2021/05/30 08:59:56;;;;;;;;;;;;;;;21.34;51.07;100755.44;5076568;28;820;-44
2021/05/30 09:02:21;;;;;;;;;;;;;;;21.42;51.18;100759.44;5076289;28;924;-56
2021/05/30 09:04:53;;;;;;;;;;;;;;;21.37;52.30;100754.81;5076374;28;783;-49
2021/05/30 09:07:19;;;;;;;;;;;;;;;21.67;53.25;100758.13;5076420;28;1917;-44
2021/05/30 09:09:48;;;;;;;;;;;;;;;21.79;54.15;100744.59;5076708;28;795;-44
2021/05/30 09:12:19;;;;;;;;;;;;;;;22.11;54.04;100753.84;5075673;28;1112;-44
2021/05/30 09:14:49;;;;;;;;;;;;;;;22.26;54.11;100755.47;5076568;28;821;-44
2021/05/30 09:17:14;;;;;;;;;;;;;;;22.37;53.57;100747.72;5056673;28;1180;-55
2021/05/30 09:19:44;;;;;;;;;;;;;;;21.85;54.91;100748.91;5057546;28;1209;-44
2021/05/30 09:22:25;;;;;;;;;;;;;;;21.68;55.33;100752.28;5076445;28;775;-45
2021/05/30 09:24:50;;;;;;;;;;;;;;;21.32;54.01;100752.16;5076152;28;756;-45
2021/05/30 09:27:16;;;;;;;;;;;;;;;21.56;55.61;100748.41;5075955;28;1917;-44
2021/05/30 09:29:42;;;;;;;;;;;;;;;21.99;54.56;100742.50;5076529;28;795;-52
2021/05/30 09:32:07;;;;;;;;;;;;;;;22.19;53.77;100739.25;5076001;28;998;-44
2021/05/30 09:34:33;;;;;;;;;;;;;;;22.48;52.69;100743.63;5075889;28;729;-45
2021/05/30 09:36:59;;;;;;;;;;;;;;;22.08;53.69;100739.81;5076133;28;740;-44
2021/05/30 09:39:36;;;;;;;;;;;;;;;22.12;53.67;100741.66;5075891;28;764;-44
2021/05/30 09:42:20;;;;;;;;;;;;;;;21.64;53.32;100739.38;5075726;28;748;-54
2021/05/30 09:44:59;;;;;;;;;;;;;;;21.49;53.58;100732.16;5076139;28;768;-44
2021/05/30 09:47:33;;;;;;;;;;;;;;;21.76;54.89;100736.91;5075505;28;1918;-44
2021/05/30 09:49:59;;;;;;;;;;;;;;;22.29;53.31;100737.41;5075756;28;799;-44
2021/05/30 09:52:37;;;;;;;;;;;;;;;22.49;52.44;100731.38;5075806;28;768;-44
2021/05/30 09:55:23;;;;;;;;;;;;;;;22.08;53.72;100737.88;5075935;28;788;-45
2021/05/30 09:58:09;;;;;;;;;;;;;;;21.77;54.23;100730.25;5075997;28;783;-44
2021/05/30 10:00:35;;;;;;;;;;;;;;;21.56;52.17;100740.94;5075988;28;734;-45
2021/05/30 10:03:00;;;;;;;;;;;;;;;21.64;54.66;100728.31;5075457;28;995;-57
2021/05/30 10:05:26;;;;;;;;;;;;;;;21.78;53.81;100729.09;5075509;28;1901;-45
2021/05/30 10:07:51;;;;;;;;;;;;;;;22.08;53.72;100728.72;5057842;28;791;-56
2021/05/30 10:10:17;;;;;;;;;;;;;;;22.27;53.17;100723.03;5077026;28;838;-47
2021/05/30 10:12:43;;;;;;;;;;;;;;;22.18;53.25;100722.97;5079032;28;1234;-47
2021/05/30 10:15:09;;;;;;;;;;;;;;;21.95;53.98;100719.34;5079115;28;1103;-56
2021/05/30 10:17:35;;;;;;;;;;;;;;;21.80;53.19;100717.75;5079126;28;966;-44
2021/05/30 10:20:01;;;;;;;;;;;;;;;21.72;51.19;100726.78;5079322;28;795;-56
2021/05/30 10:22:27;;;;;;;;;;;;;;;21.49;51.09;100723.88;5043989;28;849;-47
2021/05/30 10:24:53;;;;;;;;;;;;;;;21.77;54.20;100727.47;5061585;28;874;-46
2021/05/30 10:27:23;;;;;;;;;;;;;;;21.99;54.36;100720.34;5060849;28;1914;-48
2021/05/30 10:30:07;;;;;;;;;;;;;;;22.37;53.17;100717.25;5079295;28;1380;-58
2021/05/30 10:32:32;;;;;;;;;;;;;;;22.07;53.60;100725.16;5077374;28;841;-53
2021/05/30 10:35:08;;;;;;;;;;;;;;;21.88;54.28;100723.34;5079068;28;774;-52
2021/05/30 10:37:38;;;;;;;;;;;;;;;21.13;53.56;100722.66;5079180;28;801;-46
2021/05/30 10:40:10;;;;;;;;;;;;;;;21.25;55.02;100722.16;5079607;28;751;-47
2021/05/30 10:42:36;;;;;;;;;;;;;;;21.51;53.35;100730.75;5060481;28;1303;-47
2021/05/30 10:45:03;;;;;;;;;;;;;;;21.62;52.46;100722.28;5079005;28;764;-47
2021/05/30 10:47:43;;;;;;;;;;;;;;;21.64;52.86;100725.53;5078334;28;1974;-46
2021/05/30 10:50:11;;;;;;;;;;;;;;;21.62;53.96;100741.66;5044178;28;1210;-57
2021/05/30 10:52:37;;;;;;;;;;;;;;;21.85;53.99;100721.22;5060989;28;1114;-48
2021/05/30 10:55:12;;;;;;;;;;;;;;;22.17;53.60;100727.66;5078545;28;779;-47
2021/05/30 10:57:38;;;;;;;;;;;;;;;22.29;53.02;100723.56;5078689;28;719;-46
2021/05/30 11:00:24;;;;;;;;;;;;;;;21.91;54.20;100721.09;5078622;28;780;-45
2021/05/30 11:03:08;;;;;;;;;;;;;;;21.68;53.82;100721.03;5077523;28;1570;-50
2021/05/30 11:05:39;;;;;;;;;;;;;;;21.13;54.91;100724.59;5078619;28;1978;-46
2021/05/30 11:08:04;;;;;;;;;;;;;;;21.44;54.88;100721.22;5078347;28;972;-48
2021/05/30 11:10:30;;;;;;;;;;;;;;;21.81;54.08;100720.19;5078073;28;811;-46
2021/05/30 11:12:56;;;;;;;;;;;;;;;21.95;53.97;100722.09;5078311;28;1210;-46
2021/05/30 11:15:23;;;;;;;;;;;;;;;22.03;53.55;100719.44;5060302;28;1115;-54
2021/05/30 11:17:50;;;;;;;;;;;;;;;22.09;53.29;100717.38;5077358;28;978;-49
2021/05/30 11:20:19;;;;;;;;;;;;;;;22.33;52.40;100710.69;5078186;28;764;-48
2021/05/30 11:22:56;;;;;;;;;;;;;;;22.25;52.63;100711.47;5042162;28;997;-48
2021/05/30 11:25:23;;;;;;;;;;;;;;;22.31;52.64;100707.41;5077695;28;895;-57
2021/05/30 11:27:51;;;;;;;;;;;;;;;21.86;53.96;100714.53;5078380;28;1918;-49
2021/05/30 11:30:35;;;;;;;;;;;;;;;21.66;54.28;100715.00;5078078;28;744;-45
2021/05/30 11:33:01;;;;;;;;;;;;;;;21.07;54.52;100714.75;5077046;28;1117;-58
2021/05/30 11:35:26;;;;;;;;;;;;;;;21.69;54.50;100715.19;5076950;28;822;-48
2021/05/30 11:37:52;;;;;;;;;;;;;;;22.00;53.21;100722.78;5077904;28;734;-58
2021/05/30 11:40:18;;;;;;;;;;;;;;;22.17;53.04;100708.28;5077500;28;811;-53
2021/05/30 11:42:44;;;;;;;;;;;;;;;22.27;52.66;100709.19;5077619;28;791;-48
2021/05/30 11:45:27;;;;;;;;;;;;;;;22.34;52.33;100715.13;5077497;28;772;-48
2021/05/30 11:48:03;;;;;;;;;;;;;;;21.74;54.06;100719.81;5048385;28;1910;-47
2021/05/30 11:50:29;;;;;;;;;;;;;;;21.68;53.98;100713.53;5057380;28;767;-57
2021/05/30 11:52:55;;;;;;;;;;;;;;;21.24;53.62;100711.38;5057436;28;780;-50
2021/05/30 11:55:20;;;;;;;;;;;;;;;21.48;54.61;100712.00;5039452;28;759;-50
2021/05/30 11:57:46;;;;;;;;;;;;;;;21.77;54.04;100710.88;5057167;28;886;-49
2021/05/30 12:00:11;;;;;;;;;;;;;;;21.99;53.30;100704.56;5039626;28;856;-57
2021/05/30 12:02:45;;;;;;;;;;;;;;;22.16;52.83;100709.44;5065449;28;979;-52
2021/05/30 12:05:14;;;;;;;;;;;;;;;22.19;52.55;100702.47;5077320;28;752;-48
2021/05/30 12:07:39;;;;;;;;;;;;;;;22.26;52.14;100708.38;5077626;28;1906;-50
2021/05/30 12:10:05;;;;;;;;;;;;;;;21.67;53.98;100708.31;5076719;28;783;-48
2021/05/30 12:12:34;;;;;;;;;;;;;;;21.46;54.35;100710.66;5076952;28;1100;-52
2021/05/30 12:15:00;;;;;;;;;;;;;;;20.98;53.69;100698.06;5077127;28;840;-54
2021/05/30 12:17:25;;;;;;;;;;;;;;;21.46;54.88;100697.66;5075791;28;1198;-46
2021/05/30 12:19:51;;;;;;;;;;;;;;;21.77;53.75;100693.44;5077003;28;736;-54
2021/05/30 12:22:23;;;;;;;;;;;;;;;22.04;53.07;100695.31;5077281;28;810;-48
2021/05/30 12:24:49;;;;;;;;;;;;;;;22.14;52.54;100683.19;5076410;28;871;-47
2021/05/30 12:27:14;;;;;;;;;;;;;;;22.26;52.34;100690.91;5076829;28;1909;-52
2021/05/30 12:29:41;;;;;;;;;;;;;;;22.27;52.14;100684.25;5077401;28;803;-58
2021/05/30 12:32:06;;;;;;;;;;;;;;;22.28;52.21;100694.22;5057974;28;979;-57
2021/05/30 12:34:35;;;;;;;;;;;;;;;22.23;52.17;100678.50;5076429;28;792;-58
2021/05/30 12:37:00;;;;;;;;;;;;;;;21.88;53.00;100684.59;5076665;28;764;-57
2021/05/30 12:39:26;;;;;;;;;;;;;;;21.83;53.32;100678.38;5076170;28;879;-54
2021/05/30 12:41:59;;;;;;;;;;;;;;;21.68;53.03;100685.06;5076995;28;744;-60
2021/05/30 12:44:32;;;;;;;;;;;;;;;21.05;53.54;100681.88;5075709;28;876;-51
2021/05/30 12:47:03;;;;;;;;;;;;;;;21.59;54.25;100675.84;5075619;28;1906;-59
2021/05/30 12:49:29;;;;;;;;;;;;;;;22.01;52.84;100674.59;5076795;28;791;-44
2021/05/30 12:52:07;;;;;;;;;;;;;;;22.09;52.52;100675.81;5076825;28;818;-56
2021/05/30 12:54:36;;;;;;;;;;;;;;;22.12;52.47;100669.66;5076218;28;566;-53